Time,TemperatureF,DewpointF,PressureIn,WindDirection,WindDirectionDegrees,WindSpeedMPH,WindSpeedGustMPH,Humidity,HourlyPrecipIn,Conditions,Clouds,dailyrainin,SoftwareType,DateUTC
2013-04-30 00:01:00,56.5,53.6,0.00,NW,309,0.0,0.0,90,0.00,,---,0.00,VWS V13.01,2013-04-30 04:01:00,
2013-04-30 00:03:00,56.3,53.4,0.00,NW,309,0.0,0.0,90,0.00,,---,0.00,VWS V13.01,2013-04-30 04:03:00,
2013-04-30 00:05:00,56.3,53.4,0.00,NW,309,0.0,0.0,90,0.00,,---,0.00,VWS V13.01,2013-04-30 04:05:00,
2013-04-30 00:10:00,56.1,53.2,0.00,NW,309,0.0,0.0,90,0.00,,---,0.00,VWS V13.01,2013-04-30 04:10:00,
2013-04-30 00:15:00,56.1,53.2,0.00,NW,309,0.0,0.0,90,0.00,,---,0.00,VWS V13.01,2013-04-30 04:15:00,
2013-04-30 00:20:00,56.1,53.2,0.00,NW,309,0.0,0.0,90,0.00,,---,0.00,VWS V13.01,2013-04-30 04:20:00,
2013-04-30 00:25:00,56.1,53.5,0.00,NW,309,0.0,0.0,91,0.00,,---,0.00,VWS V13.01,2013-04-30 04:25:00,
2013-04-30 00:30:00,56.1,53.5,0.00,NW,309,0.0,0.0,91,0.00,,---,0.00,VWS V13.01,2013-04-30 04:30:00,
2013-04-30 00:35:00,56.1,53.5,0.00,NW,309,0.0,0.0,91,0.00,,---,0.00,VWS V13.01,2013-04-30 04:35:00,
2013-04-30 00:40:00,56.1,53.5,0.00,NW,309,0.0,0.0,91,0.00,,---,0.00,VWS V13.01,2013-04-30 04:40:00,
2013-04-30 00:45:00,56.3,53.7,0.00,NW,309,0.0,0.0,91,0.00,,---,0.00,VWS V13.01,2013-04-30 04:45:00,
2013-04-30 00:50:00,56.3,53.7,0.00,NW,309,0.0,0.0,91,0.00,,---,0.00,VWS V13.01,2013-04-30 04:50:00,
2013-04-30 00:55:00,56.3,53.7,0.00,NW,309,0.0,0.0,91,0.00,,---,0.00,VWS V13.01,2013-04-30 04:55:00,
2013-04-30 01:00:00,56.3,53.7,0.00,NW,309,0.0,0.0,91,0.00,,---,0.00,VWS V13.01,2013-04-30 05:00:00,
2013-04-30 01:05:00,56.3,54.0,0.00,NW,309,0.0,0.0,92,0.00,,---,0.00,VWS V13.01,2013-04-30 05:05:00,
2013-04-30 01:10:00,56.3,54.0,0.00,NW,309,0.0,0.0,92,0.00,,---,0.00,VWS V13.01,2013-04-30 05:10:00,
2013-04-30 01:15:00,56.3,54.0,0.00,NW,309,0.0,0.0,92,0.00,,---,0.00,VWS V13.01,2013-04-30 05:15:00,
2013-04-30 01:20:00,56.3,54.0,0.00,NW,309,0.0,0.0,92,0.00,,---,0.00,VWS V13.01,2013-04-30 05:20:00,
2013-04-30 01:25:00,56.3,54.0,0.00,NW,309,0.0,0.0,92,0.00,,---,0.00,VWS V13.01,2013-04-30 05:25:00,
2013-04-30 01:30:00,56.3,54.0,0.00,NW,309,0.0,0.0,92,0.00,,---,0.00,VWS V13.01,2013-04-30 05:30:00,
2013-04-30 01:35:00,56.3,54.0,0.00,NW,309,0.0,0.0,92,0.00,,---,0.00,VWS V13.01,2013-04-30 05:35:00,
2013-04-30 01:40:00,56.5,54.2,0.00,NW,309,0.0,0.0,92,0.00,,---,0.00,VWS V13.01,2013-04-30 05:40:00,
2013-04-30 01:45:00,56.7,54.7,0.00,NW,309,0.0,0.0,93,0.00,,---,0.00,VWS V13.01,2013-04-30 05:45:00,
2013-04-30 01:50:00,56.7,54.7,0.00,NW,309,0.0,0.0,93,0.00,,---,0.00,VWS V13.01,2013-04-30 05:50:00,
2013-04-30 01:55:00,56.7,54.7,0.00,NW,309,0.0,0.0,93,0.00,,---,0.00,VWS V13.01,2013-04-30 05:55:00,
2013-04-30 02:00:00,56.8,54.8,0.00,NW,309,0.0,0.0,93,0.00,,---,0.00,VWS V13.01,2013-04-30 06:00:00,
2013-04-30 02:05:00,56.8,54.8,0.00,NW,309,0.0,0.0,93,0.00,,---,0.00,VWS V13.01,2013-04-30 06:05:00,
2013-04-30 02:11:00,56.8,54.8,0.00,NW,309,0.0,0.0,93,0.00,,---,0.00,VWS V13.01,2013-04-30 06:11:00,
2013-04-30 02:15:00,56.7,54.7,0.00,NW,309,0.0,0.0,93,0.00,,---,0.00,VWS V13.01,2013-04-30 06:15:00,
2013-04-30 02:20:00,56.7,54.7,0.00,NW,309,0.0,0.0,93,0.00,,---,0.00,VWS V13.01,2013-04-30 06:20:00,
2013-04-30 02:25:00,56.5,54.5,0.00,NW,309,0.0,0.0,93,0.00,,---,0.00,VWS V13.01,2013-04-30 06:25:00,
2013-04-30 02:30:00,56.3,54.3,0.00,NW,309,0.0,0.0,93,0.00,,---,0.00,VWS V13.01,2013-04-30 06:30:00,
2013-04-30 02:35:00,56.3,54.3,0.00,NW,309,0.0,0.0,93,0.00,,---,0.00,VWS V13.01,2013-04-30 06:35:00,
2013-04-30 02:40:00,56.1,54.1,0.00,NW,309,0.0,0.0,93,0.00,,---,0.00,VWS V13.01,2013-04-30 06:40:00,
2013-04-30 02:46:00,56.1,54.1,0.00,NW,309,0.0,0.0,93,0.00,,---,0.00,VWS V13.01,2013-04-30 06:46:00,
2013-04-30 02:51:00,55.9,54.0,0.00,NW,309,0.0,0.0,93,0.00,,---,0.00,VWS V13.01,2013-04-30 06:51:00,
2013-04-30 02:56:00,55.9,54.0,0.00,NW,309,0.0,0.0,93,0.00,,---,0.00,VWS V13.01,2013-04-30 06:56:00,
2013-04-30 03:03:00,55.9,54.2,0.00,NW,309,0.0,0.0,94,0.00,,---,0.00,VWS V13.01,2013-04-30 07:03:00,
2013-04-30 03:08:00,55.9,54.2,0.00,NW,309,0.0,0.0,94,0.00,,---,0.00,VWS V13.01,2013-04-30 07:08:00,
2013-04-30 03:13:00,55.9,54.2,0.00,NW,309,0.0,0.0,94,0.00,,---,0.00,VWS V13.01,2013-04-30 07:13:00,
2013-04-30 03:18:00,56.1,54.4,0.00,NW,309,0.0,0.0,94,0.00,,---,0.00,VWS V13.01,2013-04-30 07:18:00,
2013-04-30 03:23:00,56.1,54.4,0.00,NW,309,0.0,0.0,94,0.00,,---,0.00,VWS V13.01,2013-04-30 07:23:00,
2013-04-30 03:28:00,55.9,54.2,0.00,NW,309,0.0,0.0,94,0.00,,---,0.00,VWS V13.01,2013-04-30 07:28:00,
2013-04-30 03:33:00,55.8,54.1,0.00,NW,309,0.0,0.0,94,0.00,,---,0.00,VWS V13.01,2013-04-30 07:33:00,
2013-04-30 03:38:00,55.6,53.9,0.00,NW,309,0.0,0.0,94,0.00,,---,0.00,VWS V13.01,2013-04-30 07:38:00,
2013-04-30 03:43:00,55.4,53.7,0.00,NW,309,0.0,0.0,94,0.00,,---,0.00,VWS V13.01,2013-04-30 07:43:00,
2013-04-30 03:49:00,55.4,53.7,0.00,NW,309,0.0,0.0,94,0.00,,---,0.00,VWS V13.01,2013-04-30 07:49:00,
2013-04-30 03:54:00,55.4,53.7,0.00,NW,309,0.0,0.0,94,0.00,,---,0.00,VWS V13.01,2013-04-30 07:54:00,
2013-04-30 03:59:00,55.6,53.9,0.00,NW,309,0.0,0.0,94,0.00,,---,0.00,VWS V13.01,2013-04-30 07:59:00,
2013-04-30 04:04:00,55.6,54.2,0.00,NW,309,0.0,0.0,95,0.00,,---,0.00,VWS V13.01,2013-04-30 08:04:00,
2013-04-30 04:11:00,55.8,54.3,0.00,NW,309,0.0,0.0,95,0.00,,---,0.00,VWS V13.01,2013-04-30 08:11:00,
2013-04-30 04:16:00,55.9,54.5,0.00,NW,309,0.0,0.0,95,0.00,,---,0.00,VWS V13.01,2013-04-30 08:16:00,
2013-04-30 04:21:00,56.1,54.7,0.00,NW,309,0.0,0.0,95,0.00,,---,0.00,VWS V13.01,2013-04-30 08:21:00,
2013-04-30 04:26:00,56.3,54.9,0.00,NW,309,0.0,0.0,95,0.00,,---,0.00,VWS V13.01,2013-04-30 08:26:00,
2013-04-30 04:31:00,56.3,54.9,0.00,NW,309,0.0,0.0,95,0.00,,---,0.00,VWS V13.01,2013-04-30 08:31:00,
2013-04-30 04:36:00,56.3,54.9,0.00,NW,309,0.0,0.0,95,0.00,,---,0.00,VWS V13.01,2013-04-30 08:36:00,
2013-04-30 04:41:00,56.3,54.9,0.00,NW,309,0.0,0.0,95,0.00,,---,0.00,VWS V13.01,2013-04-30 08:41:00,
2013-04-30 04:46:00,56.3,55.2,0.00,NW,309,0.0,0.0,96,0.00,,---,0.00,VWS V13.01,2013-04-30 08:46:00,
2013-04-30 04:51:00,56.3,55.2,0.00,NW,309,0.0,0.0,96,0.00,,---,0.00,VWS V13.01,2013-04-30 08:51:00,
2013-04-30 04:56:00,56.3,55.2,0.00,NE,36,0.0,0.0,96,0.00,,---,0.00,VWS V13.01,2013-04-30 08:56:00,
2013-04-30 05:01:00,56.5,55.4,0.00,NE,36,0.0,0.0,96,0.00,,---,0.00,VWS V13.01,2013-04-30 09:01:00,
2013-04-30 05:06:00,56.5,55.4,0.00,NE,36,0.0,0.0,96,0.00,,---,0.00,VWS V13.01,2013-04-30 09:06:00,
2013-04-30 05:11:00,56.5,55.6,0.00,NNE,20,0.0,2.7,97,0.00,,---,0.00,VWS V13.01,2013-04-30 09:11:00,
2013-04-30 05:16:00,56.5,55.6,0.00,NNE,25,0.0,2.7,97,0.00,,---,0.00,VWS V13.01,2013-04-30 09:16:00,
2013-04-30 05:21:00,56.7,55.8,0.00,NNE,32,0.0,0.0,97,0.00,,---,0.00,VWS V13.01,2013-04-30 09:21:00,
2013-04-30 05:26:00,56.7,55.8,0.00,NNE,33,0.0,2.2,97,0.00,,---,0.00,VWS V13.01,2013-04-30 09:26:00,
2013-04-30 05:31:00,56.7,55.8,0.00,NE,34,0.0,2.2,97,0.00,,---,0.00,VWS V13.01,2013-04-30 09:31:00,
2013-04-30 05:36:00,56.7,55.8,0.00,NNE,18,0.0,3.1,97,0.00,,---,0.00,VWS V13.01,2013-04-30 09:36:00,
2013-04-30 05:41:00,56.7,55.8,0.00,NNE,23,0.0,0.0,97,0.00,,---,0.00,VWS V13.01,2013-04-30 09:41:00,
2013-04-30 05:46:00,56.7,56.1,0.00,NNE,33,0.0,3.6,98,0.00,,---,0.00,VWS V13.01,2013-04-30 09:46:00,
2013-04-30 05:51:00,56.7,56.1,0.00,North,9,0.0,3.6,98,0.00,,---,0.00,VWS V13.01,2013-04-30 09:51:00,
2013-04-30 05:56:00,56.7,56.1,0.00,NNE,14,0.0,3.6,98,0.00,,---,0.00,VWS V13.01,2013-04-30 09:56:00,
2013-04-30 06:01:00,56.7,56.1,0.00,NNE,33,0.0,0.0,98,0.00,,---,0.00,VWS V13.01,2013-04-30 10:01:00,
2013-04-30 06:06:00,56.7,56.1,0.00,NNE,33,0.0,2.2,98,0.00,,---,0.00,VWS V13.01,2013-04-30 10:06:00,
2013-04-30 06:11:00,56.7,56.1,0.00,NNE,33,0.0,3.1,98,0.00,,---,0.00,VWS V13.01,2013-04-30 10:11:00,
2013-04-30 06:16:00,56.7,56.1,0.00,NNE,24,0.0,3.1,98,0.00,,---,0.00,VWS V13.01,2013-04-30 10:16:00,
2013-04-30 06:21:00,56.7,56.1,0.00,NNE,24,0.0,0.0,98,0.00,,---,0.00,VWS V13.01,2013-04-30 10:21:00,
2013-04-30 06:26:00,56.7,56.1,0.00,NNE,24,0.0,0.0,98,0.00,,---,0.00,VWS V13.01,2013-04-30 10:26:00,
2013-04-30 06:31:00,56.7,56.1,0.00,North,5,0.0,0.0,98,0.00,,---,0.00,VWS V13.01,2013-04-30 10:31:00,
2013-04-30 06:36:00,56.7,56.1,0.00,NNE,31,0.0,2.2,98,0.00,,---,0.00,VWS V13.01,2013-04-30 10:36:00,
2013-04-30 06:41:00,56.7,56.1,0.00,NNE,16,0.0,0.0,98,0.00,,---,0.00,VWS V13.01,2013-04-30 10:41:00,
2013-04-30 06:46:00,56.7,56.1,0.00,NNE,16,0.0,0.0,98,0.00,,---,0.00,VWS V13.01,2013-04-30 10:46:00,
2013-04-30 06:51:00,56.8,56.3,0.00,NNE,16,0.0,0.0,98,0.00,,---,0.00,VWS V13.01,2013-04-30 10:51:00,
2013-04-30 06:56:00,56.8,56.3,0.00,NNE,16,0.0,0.0,98,0.00,,---,0.00,VWS V13.01,2013-04-30 10:56:00,
2013-04-30 07:01:00,56.8,56.3,0.00,NNE,18,0.0,3.6,98,0.00,,---,0.00,VWS V13.01,2013-04-30 11:01:00,
2013-04-30 07:06:00,56.8,56.3,0.00,North,353,0.0,3.6,98,0.00,,---,0.00,VWS V13.01,2013-04-30 11:06:00,
2013-04-30 07:11:00,56.8,56.3,0.00,North,357,0.0,3.6,98,0.00,,---,0.00,VWS V13.01,2013-04-30 11:11:00,
2013-04-30 07:16:00,56.8,56.3,0.00,NNE,26,0.0,3.6,98,0.00,,---,0.00,VWS V13.01,2013-04-30 11:16:00,
2013-04-30 07:21:00,56.8,56.3,0.00,NNE,26,0.0,0.0,98,0.00,,---,0.00,VWS V13.01,2013-04-30 11:21:00,
2013-04-30 07:26:00,57.0,56.5,0.00,NNE,26,0.0,0.0,98,0.00,,---,0.00,VWS V13.01,2013-04-30 11:26:00,
2013-04-30 07:31:00,57.0,56.5,0.00,NE,35,3.6,4.0,98,0.00,,---,0.00,VWS V13.01,2013-04-30 11:31:00,
2013-04-30 07:36:00,57.0,56.5,0.00,NNE,18,0.0,4.0,98,0.00,,---,0.00,VWS V13.01,2013-04-30 11:36:00,
2013-04-30 07:41:00,57.2,56.6,0.00,NNE,18,0.0,0.0,98,0.00,,---,0.00,VWS V13.01,2013-04-30 11:41:00,
2013-04-30 07:46:00,57.4,56.8,0.00,NNE,22,0.0,0.0,98,0.00,,---,0.00,VWS V13.01,2013-04-30 11:46:00,
2013-04-30 07:51:00,57.6,57.0,0.00,North,8,0.0,0.0,98,0.00,,---,0.00,VWS V13.01,2013-04-30 11:51:00,
2013-04-30 07:56:00,57.7,57.2,0.00,North,8,0.0,0.0,98,0.00,,---,0.00,VWS V13.01,2013-04-30 11:56:00,
2013-04-30 08:01:00,57.9,57.4,0.00,NNE,18,0.0,0.0,98,0.00,,---,0.00,VWS V13.01,2013-04-30 12:01:00,
2013-04-30 08:06:00,57.9,57.4,0.00,NNE,18,0.0,0.0,98,0.00,,---,0.00,VWS V13.01,2013-04-30 12:06:00,
2013-04-30 08:11:00,57.9,57.4,0.00,NNE,18,0.0,0.0,98,0.00,,---,0.00,VWS V13.01,2013-04-30 12:11:00,
2013-04-30 08:16:00,58.1,57.5,0.00,NE,35,3.1,3.1,98,0.00,,---,0.00,VWS V13.01,2013-04-30 12:16:00,
2013-04-30 08:21:00,58.1,57.5,0.00,NE,35,0.0,0.0,98,0.00,,---,0.00,VWS V13.01,2013-04-30 12:21:00,
2013-04-30 08:26:00,58.3,57.7,0.00,NNE,28,2.2,3.1,98,0.00,,---,0.00,VWS V13.01,2013-04-30 12:26:00,
2013-04-30 08:31:00,58.3,57.7,0.00,North,0,0.0,3.1,98,0.00,,---,0.00,VWS V13.01,2013-04-30 12:31:00,
2013-04-30 08:36:00,58.6,58.1,0.00,ENE,75,0.0,4.0,98,0.00,,---,0.00,VWS V13.01,2013-04-30 12:36:00,
2013-04-30 08:41:00,58.8,58.3,0.00,North,9,0.0,0.0,98,0.00,,---,0.00,VWS V13.01,2013-04-30 12:41:00,
2013-04-30 08:46:00,59.0,58.4,0.00,NE,42,0.0,4.0,98,0.00,,---,0.00,VWS V13.01,2013-04-30 12:46:00,
2013-04-30 08:51:00,59.0,58.4,0.00,ENE,59,0.0,5.4,98,0.00,,---,0.00,VWS V13.01,2013-04-30 12:51:00,
2013-04-30 08:56:00,59.0,58.2,0.00,NNE,28,3.6,5.4,97,0.00,,---,0.00,VWS V13.01,2013-04-30 12:56:00,
2013-04-30 09:01:00,59.0,58.2,0.00,North,353,0.0,0.0,97,0.00,,---,0.00,VWS V13.01,2013-04-30 13:01:00,
2013-04-30 09:06:00,58.8,57.7,0.00,NNE,30,0.0,4.0,96,0.00,,---,0.00,VWS V13.01,2013-04-30 13:06:00,
2013-04-30 09:11:00,59.0,57.9,0.00,North,11,0.0,4.0,96,0.00,,---,0.00,VWS V13.01,2013-04-30 13:11:00,
2013-04-30 09:16:00,59.0,57.9,0.00,North,11,0.0,4.0,96,0.00,,---,0.00,VWS V13.01,2013-04-30 13:16:00,
2013-04-30 09:21:00,59.2,57.8,0.00,NNW,327,0.0,2.2,95,0.00,,---,0.00,VWS V13.01,2013-04-30 13:21:00,
2013-04-30 09:26:00,59.4,57.9,0.00,NNE,29,3.6,5.8,95,0.00,,---,0.00,VWS V13.01,2013-04-30 13:26:00,
2013-04-30 09:31:00,59.4,57.6,0.00,WNW,299,2.7,5.8,94,0.00,,---,0.00,VWS V13.01,2013-04-30 13:31:00,
2013-04-30 09:36:00,59.7,58.0,0.00,NNW,329,0.0,5.8,94,0.00,,---,0.00,VWS V13.01,2013-04-30 13:36:00,
2013-04-30 09:41:00,59.9,57.9,0.00,East,87,0.0,0.0,93,0.00,,---,0.00,VWS V13.01,2013-04-30 13:41:00,
2013-04-30 09:46:00,59.9,57.9,0.00,WNW,294,0.0,2.7,93,0.00,,---,0.00,VWS V13.01,2013-04-30 13:46:00,
2013-04-30 09:50:00,60.1,57.8,0.00,NE,38,2.2,4.0,92,0.00,,---,0.00,VWS V13.01,2013-04-30 13:50:00,
2013-04-30 09:55:00,59.9,57.6,0.00,NE,39,4.0,4.0,92,0.00,,---,0.00,VWS V13.01,2013-04-30 13:55:00,
2013-04-30 10:00:00,60.1,57.1,0.00,NNE,33,0.0,0.0,90,0.00,,---,0.00,VWS V13.01,2013-04-30 14:00:00,
2013-04-30 10:05:00,60.3,57.3,0.00,NE,49,0.0,4.5,90,0.00,,---,0.00,VWS V13.01,2013-04-30 14:05:00,
2013-04-30 10:10:00,60.6,57.7,0.00,WNW,297,0.0,4.5,90,0.00,,---,0.00,VWS V13.01,2013-04-30 14:10:00,
2013-04-30 10:15:00,60.8,57.5,0.00,NNE,31,0.0,4.5,89,0.00,,---,0.00,VWS V13.01,2013-04-30 14:15:00,
2013-04-30 10:20:00,61.0,57.1,0.00,SE,128,0.0,2.2,87,0.00,,---,0.00,VWS V13.01,2013-04-30 14:20:00,
2013-04-30 10:25:00,61.2,57.0,0.00,ENE,78,4.9,4.9,86,0.00,,---,0.00,VWS V13.01,2013-04-30 14:25:00,
2013-04-30 10:30:00,61.3,56.8,0.00,North,5,2.2,5.4,85,0.00,,---,0.00,VWS V13.01,2013-04-30 14:30:00,
2013-04-30 10:35:00,61.7,56.8,0.00,NNW,335,3.1,5.4,84,0.00,,---,0.00,VWS V13.01,2013-04-30 14:35:00,
2013-04-30 10:40:00,62.1,56.8,0.00,North,357,2.7,3.1,83,0.00,,---,0.00,VWS V13.01,2013-04-30 14:40:00,
2013-04-30 10:45:00,62.2,57.0,0.00,NNE,30,0.0,4.0,83,0.00,,---,0.00,VWS V13.01,2013-04-30 14:45:00,
2013-04-30 10:50:00,62.4,56.9,0.00,North,8,2.7,4.9,82,0.00,,---,0.00,VWS V13.01,2013-04-30 14:50:00,
2013-04-30 10:55:00,62.6,56.7,0.00,NE,34,3.1,4.9,81,0.00,,---,0.00,VWS V13.01,2013-04-30 14:55:00,
2013-04-30 11:00:00,63.0,56.3,0.00,NNE,17,2.2,2.7,79,0.00,,---,0.00,VWS V13.01,2013-04-30 15:00:00,
2013-04-30 11:05:00,63.1,55.8,0.00,NNE,16,0.0,6.3,77,0.00,,---,0.00,VWS V13.01,2013-04-30 15:05:00,
2013-04-30 11:10:00,63.3,56.0,0.00,SW,233,3.1,6.3,77,0.00,,---,0.00,VWS V13.01,2013-04-30 15:10:00,
2013-04-30 11:15:00,63.5,56.2,0.00,WNW,303,0.0,6.3,77,0.00,,---,0.00,VWS V13.01,2013-04-30 15:15:00,
2013-04-30 11:20:00,63.7,55.6,0.00,North,0,3.6,4.9,75,0.00,,---,0.00,VWS V13.01,2013-04-30 15:20:00,
2013-04-30 11:25:00,63.9,55.8,0.00,NNE,25,3.6,4.9,75,0.00,,---,0.00,VWS V13.01,2013-04-30 15:25:00,
2013-04-30 11:30:00,63.9,55.8,0.00,North,357,0.0,4.9,75,0.00,,---,0.00,VWS V13.01,2013-04-30 15:30:00,
2013-04-30 11:35:00,63.9,55.0,0.00,NNE,23,3.1,4.9,73,0.00,,---,0.00,VWS V13.01,2013-04-30 15:35:00,
2013-04-30 11:40:00,63.9,55.0,0.00,North,0,0.0,0.0,73,0.00,,---,0.00,VWS V13.01,2013-04-30 15:40:00,
2013-04-30 11:45:00,64.2,55.8,0.00,NNE,27,0.0,0.0,74,0.00,,---,0.00,VWS V13.01,2013-04-30 15:45:00,
2013-04-30 11:50:00,64.4,55.9,0.00,ENE,62,0.0,2.7,74,0.00,,---,0.00,VWS V13.01,2013-04-30 15:50:00,
2013-04-30 11:55:00,64.4,55.9,0.00,NW,324,0.0,2.7,74,0.00,,---,0.00,VWS V13.01,2013-04-30 15:55:00,
2013-04-30 12:00:00,64.8,55.9,0.00,NNW,335,0.0,0.0,73,0.00,,---,0.00,VWS V13.01,2013-04-30 16:00:00,
2013-04-30 12:05:00,64.9,55.7,0.00,NNW,341,2.7,3.1,72,0.00,,---,0.00,VWS V13.01,2013-04-30 16:05:00,
2013-04-30 12:10:00,64.8,54.8,0.00,NNE,15,0.0,5.4,70,0.00,,---,0.00,VWS V13.01,2013-04-30 16:10:00,
2013-04-30 12:15:00,64.8,55.2,0.00,NE,35,3.1,5.4,71,0.00,,---,0.00,VWS V13.01,2013-04-30 16:15:00,
2013-04-30 12:20:00,64.8,54.8,0.00,North,357,2.2,3.1,70,0.00,,---,0.00,VWS V13.01,2013-04-30 16:20:00,
2013-04-30 12:25:00,64.9,54.9,0.00,NE,41,2.7,3.6,70,0.00,,---,0.00,VWS V13.01,2013-04-30 16:25:00,
2013-04-30 12:30:00,64.8,54.4,0.00,North,0,2.7,5.4,69,0.00,,---,0.00,VWS V13.01,2013-04-30 16:30:00,
2013-04-30 12:35:00,65.5,55.8,0.00,NNE,30,4.0,5.4,71,0.00,,---,0.00,VWS V13.01,2013-04-30 16:35:00,
2013-04-30 12:40:00,66.6,56.1,0.00,WSW,241,4.0,5.8,69,0.00,,---,0.00,VWS V13.01,2013-04-30 16:40:00,
2013-04-30 12:45:00,67.1,55.4,0.00,NNW,342,2.7,5.8,66,0.00,,---,0.00,VWS V13.01,2013-04-30 16:45:00,
2013-04-30 12:50:00,67.5,54.9,0.00,ENE,77,2.7,5.8,64,0.00,,---,0.00,VWS V13.01,2013-04-30 16:50:00,
2013-04-30 12:55:00,68.5,55.5,0.00,NNW,330,2.7,5.8,63,0.00,,---,0.00,VWS V13.01,2013-04-30 16:55:00,
2013-04-30 13:00:00,68.5,53.2,0.00,NNE,29,2.7,3.1,58,0.00,,---,0.00,VWS V13.01,2013-04-30 17:00:00,
2013-04-30 13:05:00,68.7,54.7,0.00,NNW,339,0.0,3.6,61,0.00,,---,0.00,VWS V13.01,2013-04-30 17:05:00,
2013-04-30 13:10:00,68.5,53.7,0.00,NNE,32,0.0,3.6,59,0.00,,---,0.00,VWS V13.01,2013-04-30 17:10:00,
2013-04-30 13:15:00,68.7,55.2,0.00,North,0,0.0,3.6,62,0.00,,---,0.00,VWS V13.01,2013-04-30 17:15:00,
2013-04-30 13:20:00,68.5,53.7,0.00,NW,306,2.2,2.7,59,0.00,,---,0.00,VWS V13.01,2013-04-30 17:20:00,
2013-04-30 13:25:00,69.4,55.9,0.00,NNE,33,4.9,4.9,62,0.00,,---,0.00,VWS V13.01,2013-04-30 17:25:00,
2013-04-30 13:30:00,69.6,53.2,0.00,ENE,72,2.2,4.9,56,0.00,,---,0.00,VWS V13.01,2013-04-30 17:30:00,
2013-04-30 13:35:00,70.7,52.2,0.00,SE,126,3.1,6.3,52,0.00,,---,0.00,VWS V13.01,2013-04-30 17:35:00,
2013-04-30 13:40:00,70.0,51.6,0.00,NE,39,2.7,2.7,52,0.00,,---,0.00,VWS V13.01,2013-04-30 17:40:00,
2013-04-30 13:45:00,69.1,50.7,0.00,WNW,290,2.2,4.9,52,0.00,,---,0.00,VWS V13.01,2013-04-30 17:45:00,
2013-04-30 13:50:00,68.9,52.1,0.00,ENE,75,2.2,4.9,55,0.00,,---,0.00,VWS V13.01,2013-04-30 17:50:00,
2013-04-30 13:55:00,68.9,51.6,0.00,SSW,212,3.1,4.9,54,0.00,,---,0.00,VWS V13.01,2013-04-30 17:55:00,
2013-04-30 14:00:00,69.6,52.3,0.00,NNE,25,2.2,3.6,54,0.00,,---,0.00,VWS V13.01,2013-04-30 18:00:00,
2013-04-30 14:05:00,70.5,52.6,0.00,WNW,300,2.7,4.9,53,0.00,,---,0.00,VWS V13.01,2013-04-30 18:05:00,
2013-04-30 14:10:00,71.8,53.2,0.00,North,349,0.0,6.3,52,0.00,,---,0.00,VWS V13.01,2013-04-30 18:10:00,
2013-04-30 14:15:00,72.1,50.8,0.00,WSW,241,3.6,7.6,47,0.00,,---,0.00,VWS V13.01,2013-04-30 18:15:00,
2013-04-30 14:20:00,71.6,50.9,0.00,SE,124,4.0,5.4,48,0.00,,---,0.00,VWS V13.01,2013-04-30 18:20:00,
2013-04-30 14:25:00,71.1,51.0,0.00,NE,54,4.9,5.4,49,0.00,,---,0.00,VWS V13.01,2013-04-30 18:25:00,
2013-04-30 14:30:00,70.3,50.3,0.00,ENE,75,2.7,5.4,49,0.00,,---,0.00,VWS V13.01,2013-04-30 18:30:00,
2013-04-30 14:35:00,70.0,50.5,0.00,South,191,2.7,5.4,50,0.00,,---,0.00,VWS V13.01,2013-04-30 18:35:00,
2013-04-30 14:40:00,69.8,50.9,0.00,ESE,103,0.0,0.0,51,0.00,,---,0.00,VWS V13.01,2013-04-30 18:40:00,
2013-04-30 14:45:00,69.8,51.9,0.00,North,0,0.0,4.0,53,0.00,,---,0.00,VWS V13.01,2013-04-30 18:45:00,
2013-04-30 14:50:00,69.8,52.4,0.00,WNW,288,0.0,4.0,54,0.00,,---,0.00,VWS V13.01,2013-04-30 18:50:00,
2013-04-30 14:55:00,69.3,50.4,0.00,NNE,24,0.0,5.8,51,0.00,,---,0.00,VWS V13.01,2013-04-30 18:55:00,
2013-04-30 15:00:00,69.1,50.7,0.00,WNW,286,0.0,0.0,52,0.00,,---,0.00,VWS V13.01,2013-04-30 19:00:00,
2013-04-30 15:05:00,68.9,51.1,0.00,NE,52,0.0,3.6,53,0.00,,---,0.00,VWS V13.01,2013-04-30 19:05:00,
2013-04-30 15:10:00,68.9,52.6,0.00,NNE,32,0.0,3.6,56,0.00,,---,0.00,VWS V13.01,2013-04-30 19:10:00,
2013-04-30 15:15:00,68.4,51.6,0.00,North,10,2.2,3.6,55,0.00,,---,0.00,VWS V13.01,2013-04-30 19:15:00,
2013-04-30 15:20:00,68.2,51.9,0.00,NE,35,0.0,0.0,56,0.00,,---,0.00,VWS V13.01,2013-04-30 19:20:00,
2013-04-30 15:25:00,68.0,51.7,0.00,NE,43,0.0,4.9,56,0.00,,---,0.00,VWS V13.01,2013-04-30 19:25:00,
2013-04-30 15:30:00,68.0,52.2,0.00,ESE,113,0.0,4.9,57,0.00,,---,0.00,VWS V13.01,2013-04-30 19:30:00,
2013-04-30 15:35:00,68.2,52.9,0.00,NE,38,0.0,4.9,58,0.00,,---,0.00,VWS V13.01,2013-04-30 19:35:00,
2013-04-30 15:40:00,68.0,52.7,0.00,North,11,2.7,2.7,58,0.00,,---,0.00,VWS V13.01,2013-04-30 19:40:00,
2013-04-30 15:45:00,68.2,53.3,0.00,NE,39,0.0,2.7,59,0.00,,---,0.00,VWS V13.01,2013-04-30 19:45:00,
2013-04-30 15:50:00,68.5,53.7,0.00,ENE,60,0.0,2.7,59,0.00,,---,0.00,VWS V13.01,2013-04-30 19:50:00,
2013-04-30 15:55:00,68.9,54.5,0.00,ESE,123,0.0,2.7,60,0.00,,---,0.00,VWS V13.01,2013-04-30 19:55:00,
2013-04-30 16:00:00,69.1,53.7,0.00,NNE,31,0.0,3.1,58,0.00,,---,0.00,VWS V13.01,2013-04-30 20:00:00,
2013-04-30 16:05:00,68.9,52.1,0.00,NNE,18,0.0,5.4,55,0.00,,---,0.00,VWS V13.01,2013-04-30 20:05:00,
2013-04-30 16:10:00,68.5,52.2,0.00,NE,34,0.0,6.3,56,0.00,,---,0.00,VWS V13.01,2013-04-30 20:10:00,
2013-04-30 16:15:00,68.5,52.2,0.00,NNE,25,2.7,6.3,56,0.00,,---,0.00,VWS V13.01,2013-04-30 20:15:00,
2013-04-30 16:20:00,68.5,52.7,0.00,SW,228,0.0,2.2,57,0.00,,---,0.00,VWS V13.01,2013-04-30 20:20:00,
2013-04-30 16:25:00,68.4,52.1,0.00,ENE,74,4.9,7.6,56,0.00,,---,0.00,VWS V13.01,2013-04-30 20:25:00,
2013-04-30 16:30:00,68.4,51.6,0.00,East,89,3.6,7.6,55,0.00,,---,0.00,VWS V13.01,2013-04-30 20:30:00,
2013-04-30 16:35:00,68.4,51.6,0.00,North,357,2.2,7.6,55,0.00,,---,0.00,VWS V13.01,2013-04-30 20:35:00,
2013-04-30 16:40:00,68.5,51.8,0.00,SSW,210,2.2,3.1,55,0.00,,---,0.00,VWS V13.01,2013-04-30 20:40:00,
2013-04-30 16:45:00,68.5,50.8,0.00,North,357,2.2,5.8,53,0.00,,---,0.00,VWS V13.01,2013-04-30 20:45:00,
2013-04-30 16:50:00,68.4,50.6,0.00,NNE,23,2.7,7.6,53,0.00,,---,0.00,VWS V13.01,2013-04-30 20:50:00,
2013-04-30 16:55:00,68.4,51.1,0.00,SSE,152,0.0,7.6,54,0.00,,---,0.00,VWS V13.01,2013-04-30 20:55:00,
2013-04-30 17:00:00,68.4,51.1,0.00,NE,42,2.2,2.7,54,0.00,,---,0.00,VWS V13.01,2013-04-30 21:00:00,
2013-04-30 17:05:00,68.4,51.1,0.00,NW,312,2.7,3.6,54,0.00,,---,0.00,VWS V13.01,2013-04-30 21:05:00,
2013-04-30 17:10:00,68.4,51.1,0.00,NW,318,0.0,4.9,54,0.00,,---,0.00,VWS V13.01,2013-04-30 21:10:00,
2013-04-30 17:15:00,68.5,50.8,0.00,NNE,33,2.7,4.9,53,0.00,,---,0.00,VWS V13.01,2013-04-30 21:15:00,
2013-04-30 17:20:00,68.4,51.1,0.00,NE,34,0.0,0.0,54,0.00,,---,0.00,VWS V13.01,2013-04-30 21:20:00,
2013-04-30 17:25:00,68.5,51.2,0.00,NE,35,2.2,4.9,54,0.00,,---,0.00,VWS V13.01,2013-04-30 21:25:00,
2013-04-30 17:30:00,68.4,51.1,0.00,ENE,59,2.7,5.4,54,0.00,,---,0.00,VWS V13.01,2013-04-30 21:30:00,
2013-04-30 17:35:00,68.2,51.4,0.00,ESE,117,2.7,5.4,55,0.00,,---,0.00,VWS V13.01,2013-04-30 21:35:00,
2013-04-30 17:40:00,68.2,50.9,0.00,North,5,0.0,3.1,54,0.00,,---,0.00,VWS V13.01,2013-04-30 21:40:00,
2013-04-30 17:45:00,68.0,51.2,0.00,West,264,2.2,6.3,55,0.00,,---,0.00,VWS V13.01,2013-04-30 21:45:00,
2013-04-30 17:50:00,67.8,50.6,0.00,North,353,2.2,6.3,54,0.00,,---,0.00,VWS V13.01,2013-04-30 21:50:00,
2013-04-30 17:55:00,67.6,50.9,0.00,NW,320,2.7,6.3,55,0.00,,---,0.00,VWS V13.01,2013-04-30 21:55:00,
2013-04-30 18:00:00,67.5,51.2,0.00,NE,38,2.7,3.1,56,0.00,,---,0.00,VWS V13.01,2013-04-30 22:00:00,
2013-04-30 18:05:00,67.3,51.1,0.00,NW,322,0.0,3.6,56,0.00,,---,0.00,VWS V13.01,2013-04-30 22:05:00,
2013-04-30 18:10:00,67.3,51.5,0.00,SSE,157,2.7,5.8,57,0.00,,---,0.00,VWS V13.01,2013-04-30 22:10:00,
2013-04-30 18:15:00,67.3,51.1,0.00,NE,47,2.7,5.8,56,0.00,,---,0.00,VWS V13.01,2013-04-30 22:15:00,
2013-04-30 18:20:00,67.1,50.9,0.00,NNW,330,0.0,0.0,56,0.00,,---,0.00,VWS V13.01,2013-04-30 22:20:00,
2013-04-30 18:25:00,66.9,51.7,0.00,SW,218,0.0,0.0,58,0.00,,---,0.00,VWS V13.01,2013-04-30 22:25:00,
2013-04-30 18:30:00,66.7,51.5,0.00,South,186,0.0,0.0,58,0.00,,---,0.00,VWS V13.01,2013-04-30 22:30:00,
2013-04-30 18:35:00,66.6,51.8,0.00,SE,130,5.4,5.4,59,0.00,,---,0.00,VWS V13.01,2013-04-30 22:35:00,
2013-04-30 18:40:00,66.2,50.5,0.00,West,262,4.0,4.0,57,0.00,,---,0.00,VWS V13.01,2013-04-30 22:40:00,
2013-04-30 18:45:00,66.0,50.8,0.00,SSE,156,3.1,5.4,58,0.00,,---,0.00,VWS V13.01,2013-04-30 22:45:00,
2013-04-30 18:50:00,65.8,50.7,0.00,WSW,237,2.2,5.8,58,0.00,,---,0.00,VWS V13.01,2013-04-30 22:50:00,
2013-04-30 18:55:00,65.8,51.1,0.00,South,171,0.0,5.8,59,0.00,,---,0.00,VWS V13.01,2013-04-30 22:55:00,
2013-04-30 19:00:00,66.0,51.3,0.00,South,184,0.0,0.0,59,0.00,,---,0.00,VWS V13.01,2013-04-30 23:00:00,
2013-04-30 19:05:00,66.2,51.5,0.00,East,87,0.0,5.8,59,0.00,,---,0.00,VWS V13.01,2013-04-30 23:05:00,
2013-04-30 19:10:00,66.0,51.3,0.00,East,84,0.0,5.8,59,0.00,,---,0.00,VWS V13.01,2013-04-30 23:10:00,
2013-04-30 19:15:00,65.8,51.6,0.00,East,84,0.0,5.8,60,0.00,,---,0.00,VWS V13.01,2013-04-30 23:15:00,
2013-04-30 19:20:00,65.7,51.4,0.00,NE,38,2.7,2.7,60,0.00,,---,0.00,VWS V13.01,2013-04-30 23:20:00,
2013-04-30 19:25:00,65.5,51.2,0.00,NNW,344,0.0,2.7,60,0.00,,---,0.00,VWS V13.01,2013-04-30 23:25:00,
2013-04-30 19:31:00,65.1,51.3,0.00,NW,314,0.0,4.9,61,0.00,,---,0.00,VWS V13.01,2013-04-30 23:31:00,
2013-04-30 19:36:00,64.8,51.5,0.00,NNE,18,0.0,4.9,62,0.00,,---,0.00,VWS V13.01,2013-04-30 23:36:00,
2013-04-30 19:41:00,64.4,51.5,0.00,NNE,18,0.0,0.0,63,0.00,,---,0.00,VWS V13.01,2013-04-30 23:41:00,
2013-04-30 19:46:00,64.2,51.8,0.00,SSW,209,0.0,2.7,64,0.00,,---,0.00,VWS V13.01,2013-04-30 23:46:00,
2013-04-30 19:51:00,63.9,51.9,0.00,SSW,209,0.0,2.7,65,0.00,,---,0.00,VWS V13.01,2013-04-30 23:51:00,
2013-04-30 19:56:00,63.9,51.9,0.00,SSE,157,0.0,2.7,65,0.00,,---,0.00,VWS V13.01,2013-04-30 23:56:00,
2013-04-30 20:01:00,63.7,52.1,0.00,SSE,157,0.0,0.0,66,0.00,,---,0.00,VWS V13.01,2013-05-01 00:01:00,
2013-04-30 20:06:00,63.7,52.5,0.00,SSE,157,0.0,0.0,67,0.00,,---,0.00,VWS V13.01,2013-05-01 00:06:00,
2013-04-30 20:11:00,63.3,53.0,0.00,SSE,157,0.0,0.0,69,0.00,,---,0.00,VWS V13.01,2013-05-01 00:11:00,
2013-04-30 20:15:00,63.1,52.8,0.00,SSE,157,0.0,0.0,69,0.00,,---,0.00,VWS V13.01,2013-05-01 00:15:00,
2013-04-30 20:21:00,63.0,53.0,0.00,SSE,157,0.0,0.0,70,0.00,,---,0.00,VWS V13.01,2013-05-01 00:21:00,
2013-04-30 20:26:00,63.0,53.4,0.00,SSE,157,0.0,0.0,71,0.00,,---,0.00,VWS V13.01,2013-05-01 00:26:00,
2013-04-30 20:31:00,62.8,53.2,0.00,SSE,157,0.0,0.0,71,0.00,,---,0.00,VWS V13.01,2013-05-01 00:31:00,
2013-04-30 20:36:00,62.6,53.5,0.00,SSE,157,0.0,0.0,72,0.00,,---,0.00,VWS V13.01,2013-05-01 00:36:00,
2013-04-30 20:41:00,62.6,53.5,0.00,SSE,157,0.0,0.0,72,0.00,,---,0.00,VWS V13.01,2013-05-01 00:41:00,
2013-04-30 20:46:00,62.6,53.8,0.00,SSE,157,0.0,0.0,73,0.00,,---,0.00,VWS V13.01,2013-05-01 00:46:00,
2013-04-30 20:51:00,62.4,54.0,0.00,SSE,157,0.0,0.0,74,0.00,,---,0.00,VWS V13.01,2013-05-01 00:51:00,
2013-04-30 20:56:00,62.2,54.2,0.00,SSE,157,0.0,0.0,75,0.00,,---,0.00,VWS V13.01,2013-05-01 00:56:00,
2013-04-30 21:01:00,62.2,54.6,0.00,SSE,157,0.0,0.0,76,0.00,,---,0.00,VWS V13.01,2013-05-01 01:01:00,
2013-04-30 21:06:00,62.2,54.6,0.00,SSE,157,0.0,0.0,76,0.00,,---,0.00,VWS V13.01,2013-05-01 01:06:00,
2013-04-30 21:11:00,62.2,55.0,0.00,SSE,157,0.0,0.0,77,0.00,,---,0.00,VWS V13.01,2013-05-01 01:11:00,
2013-04-30 21:16:00,62.1,54.8,0.00,SSE,157,0.0,0.0,77,0.00,,---,0.00,VWS V13.01,2013-05-01 01:16:00,
2013-04-30 21:21:00,61.9,54.6,0.00,SSE,157,0.0,0.0,77,0.00,,---,0.00,VWS V13.01,2013-05-01 01:21:00,
2013-04-30 21:26:00,61.9,55.0,0.00,SSE,157,0.0,0.0,78,0.00,,---,0.00,VWS V13.01,2013-05-01 01:26:00,
2013-04-30 21:31:00,61.7,54.8,0.00,SSE,157,0.0,0.0,78,0.00,,---,0.00,VWS V13.01,2013-05-01 01:31:00,
2013-04-30 21:36:00,61.3,54.4,0.00,SSE,157,0.0,0.0,78,0.00,,---,0.00,VWS V13.01,2013-05-01 01:36:00,
2013-04-30 21:41:00,61.2,54.3,0.00,SSE,157,0.0,0.0,78,0.00,,---,0.00,VWS V13.01,2013-05-01 01:41:00,
2013-04-30 21:46:00,60.8,54.3,0.00,SSE,157,0.0,0.0,79,0.00,,---,0.00,VWS V13.01,2013-05-01 01:46:00,
2013-04-30 21:51:00,60.6,54.1,0.00,SSE,157,0.0,0.0,79,0.00,,---,0.00,VWS V13.01,2013-05-01 01:51:00,
2013-04-30 21:56:00,60.3,53.7,0.00,SSE,157,0.0,0.0,79,0.00,,---,0.00,VWS V13.01,2013-05-01 01:56:00,
2013-04-30 22:01:00,60.1,53.9,0.00,SSE,157,0.0,0.0,80,0.00,,---,0.00,VWS V13.01,2013-05-01 02:01:00,
2013-04-30 22:06:00,59.7,53.5,0.00,SSE,157,0.0,0.0,80,0.00,,---,0.00,VWS V13.01,2013-05-01 02:06:00,
2013-04-30 22:11:00,59.5,53.4,0.00,SSE,157,0.0,0.0,80,0.00,,---,0.00,VWS V13.01,2013-05-01 02:11:00,
2013-04-30 22:17:00,59.2,53.0,0.00,SSE,157,0.0,0.0,80,0.00,,---,0.00,VWS V13.01,2013-05-01 02:17:00,
2013-04-30 22:22:00,59.0,52.8,0.00,SSE,157,0.0,0.0,80,0.00,,---,0.00,VWS V13.01,2013-05-01 02:22:00,
2013-04-30 22:27:00,58.8,53.0,0.00,SSE,157,0.0,0.0,81,0.00,,---,0.00,VWS V13.01,2013-05-01 02:27:00,
2013-04-30 22:32:00,58.6,53.2,0.00,SSE,157,0.0,0.0,82,0.00,,---,0.00,VWS V13.01,2013-05-01 02:32:00,
2013-04-30 22:37:00,58.5,53.0,0.00,SSE,157,0.0,0.0,82,0.00,,---,0.00,VWS V13.01,2013-05-01 02:37:00,
2013-04-30 22:42:00,58.3,52.8,0.00,SSE,157,0.0,0.0,82,0.00,,---,0.00,VWS V13.01,2013-05-01 02:42:00,
2013-04-30 22:47:00,58.1,52.6,0.00,SSE,157,0.0,0.0,82,0.00,,---,0.00,VWS V13.01,2013-05-01 02:47:00,
2013-04-30 22:52:00,57.9,52.8,0.00,SSE,157,0.0,0.0,83,0.00,,---,0.00,VWS V13.01,2013-05-01 02:52:00,
2013-04-30 22:57:00,57.7,52.6,0.00,SSE,157,0.0,0.0,83,0.00,,---,0.00,VWS V13.01,2013-05-01 02:57:00,
2013-04-30 23:02:00,57.7,52.6,0.00,SSE,157,0.0,0.0,83,0.00,,---,0.00,VWS V13.01,2013-05-01 03:02:00,
2013-04-30 23:07:00,57.7,52.6,0.00,SSE,156,0.0,0.0,83,0.00,,---,0.00,VWS V13.01,2013-05-01 03:07:00,
2013-04-30 23:12:00,57.7,53.0,0.00,SSE,156,0.0,0.0,84,0.00,,---,0.00,VWS V13.01,2013-05-01 03:12:00,
2013-04-30 23:17:00,57.6,52.8,0.00,SSE,156,0.0,0.0,84,0.00,,---,0.00,VWS V13.01,2013-05-01 03:17:00,
2013-04-30 23:22:00,57.6,52.8,0.00,SSE,156,0.0,0.0,84,0.00,,---,0.00,VWS V13.01,2013-05-01 03:22:00,
2013-04-30 23:27:00,57.6,52.8,0.00,SSE,156,0.0,0.0,84,0.00,,---,0.00,VWS V13.01,2013-05-01 03:27:00,
2013-04-30 23:32:00,57.6,52.8,0.00,SSE,156,0.0,0.0,84,0.00,,---,0.00,VWS V13.01,2013-05-01 03:32:00,
2013-04-30 23:37:00,57.4,52.9,0.00,SSE,156,0.0,0.0,85,0.00,,---,0.00,VWS V13.01,2013-05-01 03:37:00,
2013-04-30 23:42:00,57.4,52.9,0.00,SSE,156,0.0,0.0,85,0.00,,---,0.00,VWS V13.01,2013-05-01 03:42:00,
2013-04-30 23:47:00,57.4,53.2,0.00,SSE,156,0.0,0.0,86,0.00,,---,0.00,VWS V13.01,2013-05-01 03:47:00,
2013-04-30 23:52:00,57.4,53.2,0.00,SSE,156,0.0,0.0,86,0.00,,---,0.00,VWS V13.01,2013-05-01 03:52:00,
2013-04-30 23:57:00,57.2,53.1,0.00,SSE,156,0.0,0.0,86,0.00,,---,0.00,VWS V13.01,2013-05-01 03:57:00,